createdAt,value
2019-03-24T00:00:17.374Z,1024.75
2019-03-24T00:01:17.354Z,1024.75
2019-03-24T00:02:17.326Z,1024.73
2019-03-24T00:03:17.309Z,1024.74
2019-03-24T00:04:17.287Z,1024.70
2019-03-24T00:05:17.269Z,1024.72
2019-03-24T00:06:17.247Z,1024.73
2019-03-24T00:07:17.207Z,1024.73
2019-03-24T00:08:17.184Z,1024.74
2019-03-24T00:09:17.160Z,1024.75
2019-03-24T00:10:17.138Z,1024.72
2019-03-24T00:11:17.113Z,1024.69
2019-03-24T00:12:17.089Z,1024.70
2019-03-24T00:13:17.065Z,1024.62
2019-03-24T00:14:17.043Z,1024.65
2019-03-24T00:15:25.660Z,1024.62
2019-03-24T00:16:16.995Z,1024.61
2019-03-24T00:17:16.969Z,1024.62
2019-03-24T00:18:16.947Z,1024.67
2019-03-24T00:19:16.921Z,1024.61
2019-03-24T00:20:16.900Z,1024.63
2019-03-24T00:21:16.875Z,1024.62
2019-03-24T00:22:16.859Z,1024.62
2019-03-24T00:23:16.835Z,1024.61
2019-03-24T00:24:16.810Z,1024.62
2019-03-24T00:25:16.785Z,1024.64
2019-03-24T00:26:16.757Z,1024.65
2019-03-24T00:27:16.731Z,1024.66
2019-03-24T00:28:16.708Z,1024.66
2019-03-24T00:29:16.683Z,1024.66
2019-03-24T00:30:16.658Z,1024.65
2019-03-24T00:31:16.641Z,1024.65
2019-03-24T00:32:16.611Z,1024.66
2019-03-24T00:33:16.587Z,1024.64
2019-03-24T00:34:16.563Z,1024.66
2019-03-24T00:35:16.540Z,1024.66
2019-03-24T00:36:16.516Z,1024.72
2019-03-24T00:37:16.491Z,1024.65
2019-03-24T00:38:16.467Z,1024.63
2019-03-24T00:39:16.459Z,1024.68
2019-03-24T00:40:16.420Z,1024.67
2019-03-24T00:41:16.403Z,1024.67
2019-03-24T00:42:16.371Z,1024.68
2019-03-24T00:43:16.347Z,1024.69
2019-03-24T00:44:16.323Z,1024.68
2019-03-24T00:45:16.300Z,1024.72
2019-03-24T00:46:16.275Z,1024.73
2019-03-24T00:47:16.299Z,1024.71
2019-03-24T00:48:16.233Z,1024.69
2019-03-24T00:49:16.202Z,1024.71
2019-03-24T00:50:16.178Z,1024.69
2019-03-24T00:51:16.154Z,1024.71
2019-03-24T00:52:16.141Z,1024.67
2019-03-24T00:53:16.107Z,1024.69
2019-03-24T00:54:16.092Z,1024.64
2019-03-24T00:55:16.088Z,1024.62
2019-03-24T00:56:16.035Z,1024.65
2019-03-24T00:57:16.020Z,1024.61
2019-03-24T00:58:15.986Z,1024.60
2019-03-24T00:59:16.007Z,1024.61
2019-03-24T01:00:15.990Z,1024.64
2019-03-24T01:01:15.926Z,1024.62
2019-03-24T01:02:15.892Z,1024.59
2019-03-24T01:03:15.877Z,1024.60
2019-03-24T01:04:15.845Z,1024.52
2019-03-24T01:05:15.821Z,1024.53
2019-03-24T01:06:15.797Z,1024.52
2019-03-24T01:07:15.771Z,1024.52
2019-03-24T01:08:15.749Z,1024.49
2019-03-24T01:09:15.733Z,1024.54
2019-03-24T01:10:15.705Z,1024.52
2019-03-24T01:11:15.681Z,1024.52
2019-03-24T01:12:15.654Z,1024.49
2019-03-24T01:13:15.681Z,1024.48
2019-03-24T01:14:15.604Z,1024.45
2019-03-24T01:15:15.583Z,1024.51
2019-03-24T01:16:15.556Z,1024.48
2019-03-24T01:17:15.537Z,1024.45
2019-03-24T01:18:15.509Z,1024.44
2019-03-24T01:19:15.495Z,1024.45
2019-03-24T01:20:15.459Z,1024.40
2019-03-24T01:21:15.442Z,1024.41
2019-03-24T01:22:15.426Z,1024.38
2019-03-24T01:23:15.396Z,1024.41
2019-03-24T01:24:15.362Z,1024.39
2019-03-24T01:25:15.340Z,1024.38
2019-03-24T01:26:15.326Z,1024.39
2019-03-24T01:27:15.302Z,1024.39
2019-03-24T01:28:15.272Z,1024.41
2019-03-24T01:29:15.244Z,1024.43
2019-03-24T01:30:15.228Z,1024.44
2019-03-24T01:31:15.205Z,1024.44
2019-03-24T01:32:15.174Z,1024.49
2019-03-24T01:33:15.158Z,1024.46
2019-03-24T01:34:15.125Z,1024.53
2019-03-24T01:35:15.100Z,1024.48
2019-03-24T01:36:15.076Z,1024.50
2019-03-24T01:37:15.051Z,1024.49
2019-03-24T01:38:15.029Z,1024.45
2019-03-24T01:39:15.005Z,1024.47
2019-03-24T01:40:14.982Z,1024.49
2019-03-24T01:41:14.957Z,1024.44
2019-03-24T01:42:14.931Z,1024.43
2019-03-24T01:43:14.916Z,1024.43
2019-03-24T01:44:14.883Z,1024.37
2019-03-24T01:45:14.874Z,1024.34
2019-03-24T01:46:14.847Z,1024.40
2019-03-24T01:47:14.811Z,1024.40
2019-03-24T01:48:14.791Z,1024.40
2019-03-24T01:49:14.763Z,1024.37
2019-03-24T01:50:14.752Z,1024.37
2019-03-24T01:51:14.717Z,1024.37
2019-03-24T01:52:14.691Z,1024.34
2019-03-24T01:53:14.670Z,1024.32
2019-03-24T01:54:14.645Z,1024.32
2019-03-24T01:55:14.620Z,1024.28
2019-03-24T01:56:14.598Z,1024.25
2019-03-24T01:57:14.570Z,1024.25
2019-03-24T01:58:14.554Z,1024.29
2019-03-24T01:59:14.522Z,1024.31
2019-03-24T02:00:14.507Z,1024.27
2019-03-24T02:01:14.483Z,1024.27
2019-03-24T02:02:14.451Z,1024.28
2019-03-24T02:03:14.428Z,1024.32
2019-03-24T02:04:14.403Z,1024.28
2019-03-24T02:05:14.379Z,1024.23
2019-03-24T02:06:14.366Z,1024.27
2019-03-24T02:07:14.331Z,1024.26
2019-03-24T02:08:14.307Z,1024.21
2019-03-24T02:09:14.281Z,1024.22
2019-03-24T02:10:14.258Z,1024.19
2019-03-24T02:11:14.234Z,1024.19
2019-03-24T02:12:14.218Z,1024.14
2019-03-24T02:13:14.185Z,1024.14
2019-03-24T02:14:14.213Z,1024.13
2019-03-24T02:15:14.143Z,1024.07
2019-03-24T02:16:14.113Z,1024.10
2019-03-24T02:17:14.095Z,1024.04
2019-03-24T02:18:14.063Z,1024.06
2019-03-24T02:19:14.048Z,1024.05
2019-03-24T02:20:14.016Z,1024.07
2019-03-24T02:21:13.993Z,1024.11
2019-03-24T02:22:14.005Z,1024.16
2019-03-24T02:23:13.943Z,1024.13
2019-03-24T02:24:13.918Z,1024.17
2019-03-24T02:25:13.893Z,1024.17
2019-03-24T02:26:13.869Z,1024.17
2019-03-24T02:27:13.845Z,1024.10
2019-03-24T02:28:13.823Z,1024.10
2019-03-24T02:29:13.796Z,1024.09
2019-03-24T02:30:13.774Z,1024.04
2019-03-24T02:31:13.749Z,1024.06
2019-03-24T02:32:13.723Z,1024.03
2019-03-24T02:33:13.699Z,1024.02
2019-03-24T02:34:13.676Z,1024.01
2019-03-24T02:35:13.654Z,1024.02
2019-03-24T02:36:13.637Z,1024.04
2019-03-24T02:37:13.611Z,1024.02
2019-03-24T02:38:13.608Z,1024.00
2019-03-24T02:39:13.553Z,1023.99
2019-03-24T02:40:13.528Z,1024.00
2019-03-24T02:41:13.502Z,1024.01
2019-03-24T02:42:13.486Z,1023.97
2019-03-24T02:43:13.467Z,1023.96
2019-03-24T02:44:13.430Z,1024.04
2019-03-24T02:45:13.414Z,1023.98
2019-03-24T02:46:23.674Z,1023.98
2019-03-24T02:47:13.378Z,1023.98
2019-03-24T02:48:13.331Z,1023.93
2019-03-24T02:49:13.307Z,1023.95
2019-03-24T02:50:13.281Z,1023.96
2019-03-24T02:51:13.267Z,1023.92
2019-03-24T02:52:13.232Z,1023.90
2019-03-24T02:53:13.208Z,1023.87
2019-03-24T02:54:13.183Z,1023.87
2019-03-24T02:55:13.159Z,1023.89
2019-03-24T02:56:13.134Z,1023.87
2019-03-24T02:57:13.109Z,1023.87
2019-03-24T02:58:13.082Z,1023.86
2019-03-24T02:59:13.063Z,1023.86
2019-03-24T03:00:13.035Z,1023.83
2019-03-24T03:01:13.020Z,1023.83
2019-03-24T03:02:12.984Z,1023.81
2019-03-24T03:03:12.968Z,1023.81
2019-03-24T03:04:12.943Z,1023.79
2019-03-24T03:05:12.909Z,1023.77
2019-03-24T03:06:12.885Z,1023.78
2019-03-24T03:07:13.015Z,1023.71
2019-03-24T03:08:12.836Z,1023.75
2019-03-24T03:09:12.810Z,1023.74
2019-03-24T03:10:12.787Z,1023.72
2019-03-24T03:11:12.761Z,1023.75
2019-03-24T03:12:12.737Z,1023.73
2019-03-24T03:13:12.710Z,1023.73
2019-03-24T03:14:12.685Z,1023.74
2019-03-24T03:15:12.661Z,1023.77
2019-03-24T03:16:12.636Z,1023.71
2019-03-24T03:17:12.610Z,1023.70
2019-03-24T03:18:12.590Z,1023.70
2019-03-24T03:19:12.559Z,1023.71
2019-03-24T03:20:12.568Z,1023.66
2019-03-24T03:21:12.510Z,1023.70
2019-03-24T03:22:12.485Z,1023.65
2019-03-24T03:23:12.464Z,1023.65
2019-03-24T03:24:12.436Z,1023.70
2019-03-24T03:25:12.411Z,1023.66
2019-03-24T03:26:12.389Z,1023.65
2019-03-24T03:27:12.360Z,1023.67
2019-03-24T03:28:12.347Z,1023.67
2019-03-24T03:29:12.313Z,1023.67
2019-03-24T03:30:12.296Z,1023.66
2019-03-24T03:31:12.301Z,1023.71
2019-03-24T03:32:12.240Z,1023.71
2019-03-24T03:33:12.229Z,1023.68
2019-03-24T03:34:12.197Z,1023.68
2019-03-24T03:35:12.205Z,1023.67
2019-03-24T03:36:12.141Z,1023.67
2019-03-24T03:37:12.116Z,1023.63
2019-03-24T03:38:12.092Z,1023.59
2019-03-24T03:39:12.098Z,1023.60
2019-03-24T03:40:12.042Z,1023.61
2019-03-24T03:41:12.023Z,1023.57
2019-03-24T03:42:11.996Z,1023.62
2019-03-24T03:43:11.976Z,1023.60
2019-03-24T03:44:11.951Z,1023.57
2019-03-24T03:45:11.916Z,1023.58
2019-03-24T03:46:11.895Z,1023.55
2019-03-24T03:47:11.882Z,1023.56
2019-03-24T03:48:11.851Z,1023.53
2019-03-24T03:49:11.828Z,1023.49
2019-03-24T03:50:11.802Z,1023.52
2019-03-24T03:51:11.769Z,1023.51
2019-03-24T03:52:11.750Z,1023.52
2019-03-24T03:53:11.720Z,1023.54
2019-03-24T03:54:11.704Z,1023.54
2019-03-24T03:55:11.679Z,1023.49
2019-03-24T03:56:11.647Z,1023.49
2019-03-24T03:57:11.625Z,1023.49
2019-03-24T03:58:11.605Z,1023.51
2019-03-24T03:59:11.579Z,1023.53
2019-03-24T04:00:11.549Z,1023.50
2019-03-24T04:01:11.552Z,1023.51
2019-03-24T04:02:11.500Z,1023.45
2019-03-24T04:03:11.477Z,1023.46
2019-03-24T04:04:11.462Z,1023.42
2019-03-24T04:05:11.427Z,1023.41
2019-03-24T04:06:11.463Z,1023.43
2019-03-24T04:07:11.376Z,1023.42
2019-03-24T04:08:11.350Z,1023.43
2019-03-24T04:09:11.325Z,1023.40
2019-03-24T04:10:11.301Z,1023.39
2019-03-24T04:11:11.293Z,1023.38
2019-03-24T04:12:11.252Z,1023.37
2019-03-24T04:13:11.228Z,1023.36
2019-03-24T04:14:11.205Z,1023.38
2019-03-24T04:15:11.177Z,1023.35
2019-03-24T04:16:11.169Z,1023.30
2019-03-24T04:17:11.128Z,1023.34
2019-03-24T04:18:11.103Z,1023.26
2019-03-24T04:19:11.083Z,1023.28
2019-03-24T04:20:11.060Z,1023.33
2019-03-24T04:21:11.030Z,1023.28
2019-03-24T04:22:11.003Z,1023.26
2019-03-24T04:23:10.978Z,1023.30
2019-03-24T04:24:10.961Z,1023.25
2019-03-24T04:25:10.931Z,1023.26
2019-03-24T04:26:10.910Z,1023.23
2019-03-24T04:27:10.883Z,1023.26
2019-03-24T04:28:10.858Z,1023.26
2019-03-24T04:29:10.833Z,1023.29
2019-03-24T04:30:10.815Z,1023.31
2019-03-24T04:31:10.781Z,1023.33
2019-03-24T04:32:10.767Z,1023.36
2019-03-24T04:33:10.732Z,1023.36
2019-03-24T04:34:10.714Z,1023.36
2019-03-24T04:35:10.693Z,1023.34
2019-03-24T04:36:10.658Z,1023.33
2019-03-24T04:37:10.634Z,1023.32
2019-03-24T04:38:10.612Z,1023.35
2019-03-24T04:39:10.583Z,1023.37
2019-03-24T04:40:10.561Z,1023.34
2019-03-24T04:41:10.548Z,1023.35
2019-03-24T04:42:10.512Z,1023.35
2019-03-24T04:43:10.494Z,1023.33
2019-03-24T04:44:10.458Z,1023.36
2019-03-24T04:45:10.432Z,1023.32
2019-03-24T04:46:10.407Z,1023.30
2019-03-24T04:47:16.523Z,1023.33
2019-03-24T04:48:10.358Z,1023.34
2019-03-24T04:49:10.333Z,1023.37
2019-03-24T04:50:10.308Z,1023.35
2019-03-24T04:51:10.282Z,1023.36
2019-03-24T04:52:10.259Z,1023.36
2019-03-24T04:53:10.233Z,1023.32
2019-03-24T04:54:10.206Z,1023.34
2019-03-24T04:55:10.182Z,1023.32
2019-03-24T04:56:10.163Z,1023.34
2019-03-24T04:57:10.178Z,1023.33
2019-03-24T04:58:10.109Z,1023.30
2019-03-24T04:59:10.083Z,1023.29
2019-03-24T05:00:10.060Z,1023.28
2019-03-24T05:01:10.033Z,1023.28
2019-03-24T05:02:10.008Z,1023.26
2019-03-24T05:03:09.984Z,1023.28
2019-03-24T05:04:09.964Z,1023.29
2019-03-24T05:05:09.994Z,1023.28
2019-03-24T05:06:09.917Z,1023.29
2019-03-24T05:07:09.883Z,1023.28
2019-03-24T05:08:09.860Z,1023.27
2019-03-24T05:09:09.831Z,1023.29
2019-03-24T05:10:09.809Z,1023.27
2019-03-24T05:11:09.783Z,1023.29
2019-03-24T05:12:09.782Z,1023.28
2019-03-24T05:13:09.732Z,1023.27
2019-03-24T05:14:09.706Z,1023.34
2019-03-24T05:15:09.682Z,1023.35
2019-03-24T05:16:09.657Z,1023.36
2019-03-24T05:17:09.638Z,1023.35
2019-03-24T05:18:09.607Z,1023.40
2019-03-24T05:19:09.582Z,1023.41
2019-03-24T05:20:09.557Z,1023.37
2019-03-24T05:21:09.530Z,1023.37
2019-03-24T05:22:09.508Z,1023.40
2019-03-24T05:23:09.481Z,1023.36
2019-03-24T05:24:09.458Z,1023.36
2019-03-24T05:25:09.429Z,1023.35
2019-03-24T05:26:09.406Z,1023.37
2019-03-24T05:27:09.380Z,1023.35
2019-03-24T05:28:09.354Z,1023.39
2019-03-24T05:29:09.327Z,1023.37
2019-03-24T05:30:09.308Z,1023.38
2019-03-24T05:31:09.278Z,1023.33
2019-03-24T05:32:09.257Z,1023.32
2019-03-24T05:33:09.227Z,1023.35
2019-03-24T05:34:09.203Z,1023.28
2019-03-24T05:35:09.177Z,1023.27
2019-03-24T05:36:09.153Z,1023.26
2019-03-24T05:37:09.125Z,1023.27
2019-03-24T05:38:09.104Z,1023.28
2019-03-24T05:39:09.075Z,1023.28
2019-03-24T05:40:09.062Z,1023.29
2019-03-24T05:41:09.025Z,1023.26
2019-03-24T05:42:09.004Z,1023.30
2019-03-24T05:43:08.975Z,1023.26
2019-03-24T05:44:08.959Z,1023.24
2019-03-24T05:45:08.926Z,1023.25
2019-03-24T05:46:08.901Z,1023.28
2019-03-24T05:47:08.873Z,1023.26
2019-03-24T05:48:08.899Z,1023.30
2019-03-24T05:49:08.823Z,1023.27
2019-03-24T05:50:08.813Z,1023.31
2019-03-24T05:51:08.775Z,1023.31
2019-03-24T05:52:08.749Z,1023.30
2019-03-24T05:53:08.726Z,1023.31
2019-03-24T05:54:08.698Z,1023.24
2019-03-24T05:55:08.675Z,1023.19
2019-03-24T05:56:08.657Z,1023.19
2019-03-24T05:57:08.627Z,1023.17
2019-03-24T05:58:08.599Z,1023.15
2019-03-24T05:59:08.574Z,1023.11
2019-03-24T06:00:08.552Z,1023.15
2019-03-24T06:01:08.524Z,1023.14
2019-03-24T06:02:08.511Z,1023.13
2019-03-24T06:03:08.480Z,1023.16
2019-03-24T06:04:08.449Z,1023.11
2019-03-24T06:05:08.425Z,1023.11
2019-03-24T06:06:08.398Z,1023.06
2019-03-24T06:07:08.375Z,1023.02
2019-03-24T06:08:08.354Z,1022.99
2019-03-24T06:09:08.367Z,1022.99
2019-03-24T06:10:08.299Z,1022.96
2019-03-24T06:11:08.284Z,1022.98
2019-03-24T06:12:08.251Z,1022.95
2019-03-24T06:13:08.230Z,1022.94
2019-03-24T06:14:08.199Z,1022.95
2019-03-24T06:15:08.175Z,1022.95
2019-03-24T06:16:08.153Z,1022.94
2019-03-24T06:17:08.127Z,1022.94
2019-03-24T06:18:08.115Z,1022.90
2019-03-24T06:19:08.086Z,1022.93
2019-03-24T06:20:08.052Z,1022.88
2019-03-24T06:21:08.028Z,1022.88
2019-03-24T06:22:08.004Z,1022.87
2019-03-24T06:23:07.979Z,1022.90
2019-03-24T06:24:07.955Z,1022.92
2019-03-24T06:25:07.935Z,1022.89
2019-03-24T06:26:07.907Z,1022.89
2019-03-24T06:27:07.882Z,1022.89
2019-03-24T06:28:07.864Z,1022.89
2019-03-24T06:29:07.832Z,1022.89
2019-03-24T06:30:07.808Z,1022.91
2019-03-24T06:31:07.786Z,1022.95
2019-03-24T06:32:07.764Z,1022.94
2019-03-24T06:33:07.733Z,1022.95
2019-03-24T06:34:07.710Z,1022.95
2019-03-24T06:35:07.685Z,1022.97
2019-03-24T06:36:07.670Z,1022.94
2019-03-24T06:37:07.645Z,1022.88
2019-03-24T06:38:07.612Z,1022.85
2019-03-24T06:39:07.591Z,1022.81
2019-03-24T06:40:07.564Z,1022.82
2019-03-24T06:41:07.539Z,1022.85
2019-03-24T06:42:07.515Z,1022.80
2019-03-24T06:43:07.492Z,1022.85
2019-03-24T06:44:07.471Z,1022.78
2019-03-24T06:45:07.444Z,1022.81
2019-03-24T06:46:07.424Z,1022.76
2019-03-24T06:47:07.396Z,1022.78
2019-03-24T06:48:07.378Z,1022.80
2019-03-24T06:49:07.361Z,1022.82
2019-03-24T06:50:07.334Z,1022.82
2019-03-24T06:51:07.298Z,1022.80
2019-03-24T06:52:07.275Z,1022.82
2019-03-24T06:53:07.255Z,1022.80
2019-03-24T06:54:07.228Z,1022.75
2019-03-24T06:55:07.203Z,1022.75
2019-03-24T06:56:07.181Z,1022.75
2019-03-24T06:57:07.163Z,1022.74
2019-03-24T06:58:07.132Z,1022.77
2019-03-24T06:59:07.113Z,1022.74
2019-03-24T07:00:07.084Z,1022.78
2019-03-24T07:01:07.075Z,1022.77
2019-03-24T07:02:07.053Z,1022.75
2019-03-24T07:03:07.013Z,1022.76
2019-03-24T07:04:07.394Z,1022.78
2019-03-24T07:05:06.964Z,1022.82
2019-03-24T07:06:07.046Z,1022.82
2019-03-24T07:07:06.918Z,1022.81
2019-03-24T07:08:06.895Z,1022.86
2019-03-24T07:09:06.873Z,1022.83
2019-03-24T07:10:06.848Z,1022.82
2019-03-24T07:11:12.372Z,1022.85
2019-03-24T07:12:06.803Z,1022.84
2019-03-24T07:13:06.777Z,1022.82
2019-03-24T07:14:06.753Z,1022.83
2019-03-24T07:15:06.738Z,1022.82
2019-03-24T07:16:06.708Z,1022.85
2019-03-24T07:17:06.687Z,1022.84
2019-03-24T07:18:08.631Z,1022.82
2019-03-24T07:19:06.638Z,1022.85
2019-03-24T07:20:06.615Z,1022.87
2019-03-24T07:21:06.610Z,1022.94
2019-03-24T07:22:07.355Z,1022.94
2019-03-24T07:23:06.547Z,1022.95
2019-03-24T07:24:06.527Z,1022.96
2019-03-24T07:25:06.501Z,1022.95
2019-03-24T07:26:06.475Z,1023.00
2019-03-24T07:27:06.453Z,1022.99
2019-03-24T07:28:06.434Z,1022.99
2019-03-24T07:29:06.408Z,1022.96
2019-03-24T07:30:06.386Z,1022.91
2019-03-24T07:31:06.369Z,1022.94
2019-03-24T07:32:06.349Z,1022.87
2019-03-24T07:33:06.321Z,1022.90
2019-03-24T07:34:06.299Z,1022.93
2019-03-24T07:35:06.274Z,1023.01
2019-03-24T07:36:06.252Z,1023.00
2019-03-24T07:37:06.229Z,1023.03
2019-03-24T07:38:06.208Z,1023.06
2019-03-24T07:39:06.188Z,1023.04
2019-03-24T07:40:06.167Z,1023.06
2019-03-24T07:41:06.148Z,1023.11
2019-03-24T07:42:06.135Z,1023.10
2019-03-24T07:43:06.098Z,1023.07
2019-03-24T07:44:06.079Z,1023.06
2019-03-24T07:45:06.057Z,1023.07
2019-03-24T07:46:06.034Z,1023.03
2019-03-24T07:47:06.012Z,1023.09
2019-03-24T07:48:05.995Z,1023.10
2019-03-24T07:49:05.972Z,1023.14
2019-03-24T07:50:05.952Z,1023.10
2019-03-24T07:51:05.933Z,1023.14
2019-03-24T07:52:05.912Z,1023.16
2019-03-24T07:53:05.884Z,1023.14
2019-03-24T07:54:05.875Z,1023.15
2019-03-24T07:55:05.852Z,1023.12
2019-03-24T07:56:05.821Z,1023.12
2019-03-24T07:57:05.802Z,1023.12
2019-03-24T07:58:05.778Z,1023.11
2019-03-24T07:59:05.765Z,1023.14
2019-03-24T08:00:05.742Z,1023.12
2019-03-24T08:01:05.717Z,1023.05
2019-03-24T08:02:05.698Z,1023.09
2019-03-24T08:03:05.673Z,1023.08
2019-03-24T08:04:06.065Z,1023.12
2019-03-24T08:05:05.638Z,1023.24
2019-03-24T08:06:05.611Z,1023.23
2019-03-24T08:07:05.592Z,1023.31
2019-03-24T08:08:05.568Z,1023.28
2019-03-24T08:09:05.547Z,1023.28
2019-03-24T08:10:05.534Z,1023.23
2019-03-24T08:11:05.505Z,1023.27
2019-03-24T08:12:05.485Z,1023.27
2019-03-24T08:13:05.463Z,1023.24
2019-03-24T08:14:05.454Z,1023.21
2019-03-24T08:15:05.425Z,1023.20
2019-03-24T08:16:05.403Z,1023.30
2019-03-24T08:17:05.382Z,1023.15
2019-03-24T08:18:05.362Z,1023.15
2019-03-24T08:19:05.345Z,1023.11
2019-03-24T08:20:05.325Z,1023.11
2019-03-24T08:21:05.311Z,1023.04
2019-03-24T08:22:05.290Z,1023.03
2019-03-24T08:23:05.273Z,1023.00
2019-03-24T08:24:05.247Z,1022.97
2019-03-24T08:25:05.280Z,1022.93
2019-03-24T08:26:05.209Z,1022.95
2019-03-24T08:27:05.192Z,1022.90
2019-03-24T08:28:05.179Z,1022.80
2019-03-24T08:29:05.150Z,1022.86
2019-03-24T08:30:05.140Z,1022.92
2019-03-24T08:31:05.111Z,1022.94
2019-03-24T08:32:05.093Z,1022.93
2019-03-24T08:33:05.145Z,1022.88
2019-03-24T08:34:05.060Z,1022.74
2019-03-24T08:35:05.063Z,1022.76
2019-03-24T08:36:05.036Z,1022.72
2019-03-24T08:37:05.007Z,1022.73
2019-03-24T08:38:04.981Z,1022.76
2019-03-24T08:39:04.969Z,1022.78
2019-03-24T08:40:04.946Z,1022.79
2019-03-24T08:41:04.927Z,1022.77
2019-03-24T08:42:04.940Z,1022.79
2019-03-24T08:43:04.890Z,1022.79
2019-03-24T08:44:04.872Z,1022.79
2019-03-24T08:45:04.862Z,1022.83
2019-03-24T08:46:04.836Z,1022.86
2019-03-24T08:47:04.828Z,1022.85
2019-03-24T08:48:04.822Z,1022.94
2019-03-24T08:49:04.794Z,1022.95
2019-03-24T08:50:04.763Z,1022.97
2019-03-24T08:51:04.749Z,1023.03
2019-03-24T08:52:04.737Z,1022.96
2019-03-24T08:53:04.719Z,1023.01
2019-03-24T08:54:04.694Z,1022.96
2019-03-24T08:55:04.694Z,1022.91
2019-03-24T08:56:04.670Z,1022.91
2019-03-24T08:57:04.652Z,1022.91
2019-03-24T08:58:04.635Z,1022.89
2019-03-24T08:59:04.630Z,1022.90
2019-03-24T09:00:04.612Z,1022.91
2019-03-24T09:01:04.583Z,1022.96
2019-03-24T09:02:04.564Z,1023.01
2019-03-24T09:03:04.557Z,1023.11
2019-03-24T09:04:04.545Z,1022.92
2019-03-24T09:05:04.515Z,1022.91
2019-03-24T09:06:04.509Z,1022.94
2019-03-24T09:07:04.503Z,1022.96
2019-03-24T09:08:04.480Z,1022.92
2019-03-24T09:09:04.471Z,1022.95
2019-03-24T09:10:04.449Z,1022.97
2019-03-24T09:11:04.427Z,1022.97
2019-03-24T09:12:04.417Z,1022.91
2019-03-24T09:13:04.395Z,1022.85
2019-03-24T09:14:04.989Z,1022.84
2019-03-24T09:15:04.374Z,1022.92
2019-03-24T09:16:04.378Z,1022.87
2019-03-24T09:17:04.345Z,1022.91
2019-03-24T09:18:04.342Z,1022.85
2019-03-24T09:19:04.321Z,1022.85
2019-03-24T09:20:04.301Z,1022.83
2019-03-24T09:21:04.295Z,1022.85
2019-03-24T09:22:04.272Z,1022.89
2019-03-24T09:23:04.261Z,1022.91
2019-03-24T09:24:04.651Z,1022.84
2019-03-24T09:25:04.250Z,1022.86
2019-03-24T09:26:04.226Z,1022.86
2019-03-24T09:27:04.228Z,1022.86
2019-03-24T09:28:04.198Z,1022.89
2019-03-24T09:29:04.183Z,1022.93
2019-03-24T09:30:04.172Z,1022.94
2019-03-24T09:31:04.161Z,1022.89
2019-03-24T09:32:04.148Z,1022.86
2019-03-24T09:33:04.142Z,1022.90
2019-03-24T09:34:04.125Z,1022.83
2019-03-24T09:35:04.111Z,1022.81
2019-03-24T09:36:04.101Z,1022.79
2019-03-24T09:37:04.092Z,1022.78
2019-03-24T09:38:04.081Z,1022.76
2019-03-24T09:39:04.077Z,1022.74
2019-03-24T09:40:04.073Z,1022.76
2019-03-24T09:41:04.040Z,1022.77
2019-03-24T09:42:04.027Z,1022.83
2019-03-24T09:43:04.022Z,1022.91
2019-03-24T09:44:04.006Z,1022.92
2019-03-24T09:45:03.995Z,1022.90
2019-03-24T09:46:03.980Z,1022.90
2019-03-24T09:47:03.985Z,1022.80
2019-03-24T09:48:03.958Z,1022.80
2019-03-24T09:49:03.946Z,1022.80
2019-03-24T09:50:03.938Z,1022.83
2019-03-24T09:51:03.926Z,1022.82
2019-03-24T09:52:03.919Z,1022.86
2019-03-24T09:53:03.909Z,1022.92
2019-03-24T09:54:03.900Z,1022.98
2019-03-24T09:55:03.885Z,1022.98
2019-03-24T09:56:03.926Z,1023.00
2019-03-24T09:57:03.870Z,1022.99
2019-03-24T09:58:03.860Z,1022.96
2019-03-24T09:59:03.851Z,1022.89
2019-03-24T10:00:03.835Z,1022.99
2019-03-24T10:01:03.826Z,1022.97
2019-03-24T10:02:03.818Z,1023.00
2019-03-24T10:03:03.809Z,1023.09
2019-03-24T10:04:03.794Z,1023.05
2019-03-24T10:05:03.784Z,1023.03
2019-03-24T10:06:03.793Z,1023.02
2019-03-24T10:07:03.778Z,1022.93
2019-03-24T10:08:03.758Z,1023.06
2019-03-24T10:09:03.765Z,1023.02
2019-03-24T10:10:03.751Z,1023.05
2019-03-24T10:11:03.754Z,1023.03
2019-03-24T10:12:03.718Z,1023.00
2019-03-24T10:13:03.708Z,1023.02
2019-03-24T10:14:03.700Z,1022.93
2019-03-24T10:15:03.700Z,1022.99
2019-03-24T10:16:03.698Z,1022.92
2019-03-24T10:17:03.681Z,1022.86
2019-03-24T10:18:03.664Z,1022.80
2019-03-24T10:19:13.530Z,1022.75
2019-03-24T10:20:03.650Z,1022.71
2019-03-24T10:21:03.644Z,1022.66
2019-03-24T10:22:03.630Z,1022.63
2019-03-24T10:23:03.616Z,1022.60
2019-03-24T10:24:03.616Z,1022.53
2019-03-24T10:25:03.599Z,1022.51
2019-03-24T10:26:03.589Z,1022.47
2019-03-24T10:27:03.588Z,1022.49
2019-03-24T10:28:03.572Z,1022.45
2019-03-24T10:29:03.570Z,1022.44
2019-03-24T10:30:03.553Z,1022.32
2019-03-24T10:31:03.545Z,1022.33
2019-03-24T10:32:03.544Z,1022.28
2019-03-24T10:33:03.542Z,1022.38
2019-03-24T10:34:03.537Z,1022.38
2019-03-24T10:35:03.509Z,1022.36
2019-03-24T10:36:03.511Z,1022.37
2019-03-24T10:37:03.503Z,1022.39
2019-03-24T10:38:03.499Z,1022.31
2019-03-24T10:39:03.480Z,1022.31
2019-03-24T10:40:03.476Z,1022.24
2019-03-24T10:41:03.464Z,1022.27
2019-03-24T10:42:03.462Z,1022.30
2019-03-24T10:43:03.457Z,1022.29
2019-03-24T10:44:03.437Z,1022.29
2019-03-24T10:45:03.434Z,1022.22
2019-03-24T10:46:03.421Z,1022.11
2019-03-24T10:47:03.417Z,1022.00
2019-03-24T10:48:03.419Z,1021.94
2019-03-24T10:49:03.419Z,1021.90
2019-03-24T10:50:03.392Z,1021.88
2019-03-24T10:51:03.383Z,1021.91
2019-03-24T10:52:03.371Z,1021.96
2019-03-24T10:53:03.464Z,1021.94
2019-03-24T10:54:03.354Z,1021.99
2019-03-24T10:55:03.348Z,1021.98
2019-03-24T10:56:03.339Z,1022.04
2019-03-24T10:57:05.338Z,1021.99
2019-03-24T10:58:03.322Z,1021.97
2019-03-24T10:59:03.457Z,1021.96
2019-03-24T11:00:03.299Z,1021.90
2019-03-24T11:01:03.292Z,1021.91
2019-03-24T11:02:03.275Z,1021.90
2019-03-24T11:03:03.271Z,1021.89
2019-03-24T11:04:03.262Z,1021.89
2019-03-24T11:05:03.247Z,1021.84
2019-03-24T11:06:03.238Z,1021.83
2019-03-24T11:07:03.222Z,1021.82
2019-03-24T11:08:03.211Z,1021.83
2019-03-24T11:09:03.209Z,1021.86
2019-03-24T11:10:03.194Z,1021.84
2019-03-24T11:11:03.179Z,1021.82
2019-03-24T11:12:03.165Z,1021.80
2019-03-24T11:13:03.160Z,1021.80
2019-03-24T11:14:03.147Z,1021.73
2019-03-24T11:15:03.178Z,1021.76
2019-03-24T11:16:03.116Z,1021.75
2019-03-24T11:17:03.101Z,1021.75
2019-03-24T11:18:03.115Z,1021.75
2019-03-24T11:19:03.078Z,1021.75
2019-03-24T11:20:03.079Z,1021.76
2019-03-24T11:21:03.049Z,1021.76
2019-03-24T11:22:03.043Z,1021.81
2019-03-24T11:23:03.022Z,1021.83
2019-03-24T11:24:03.011Z,1021.91
2019-03-24T11:25:02.993Z,1021.86
2019-03-24T11:26:02.986Z,1021.96
2019-03-24T11:27:02.974Z,1021.95
2019-03-24T11:28:02.958Z,1021.94
2019-03-24T11:29:02.989Z,1021.94
2019-03-24T11:30:02.938Z,1021.90
2019-03-24T11:31:02.911Z,1021.94
2019-03-24T11:32:02.898Z,1021.86
2019-03-24T11:33:02.886Z,1021.85
2019-03-24T11:34:02.870Z,1021.90
2019-03-24T11:35:02.863Z,1021.91
2019-03-24T11:36:02.844Z,1021.85
2019-03-24T11:37:02.829Z,1021.94
2019-03-24T11:38:02.815Z,1021.81
2019-03-24T11:39:02.817Z,1021.89
2019-03-24T11:40:02.797Z,1021.87
2019-03-24T11:41:02.783Z,1021.86
2019-03-24T11:42:02.769Z,1021.79
2019-03-24T11:43:02.748Z,1021.79
2019-03-24T11:44:02.734Z,1021.91
2019-03-24T11:45:02.771Z,1021.82
2019-03-24T11:46:02.707Z,1021.90
2019-03-24T11:47:02.709Z,1021.91
2019-03-24T11:48:02.686Z,1021.90
2019-03-24T11:49:02.664Z,1022.02
2019-03-24T11:50:02.655Z,1022.12
2019-03-24T11:51:02.653Z,1021.99
2019-03-24T11:52:02.637Z,1022.01
2019-03-24T11:53:02.641Z,1022.00
2019-03-24T11:54:02.595Z,1022.04
2019-03-24T11:55:02.582Z,1022.23
2019-03-24T11:56:02.568Z,1022.08
2019-03-24T11:57:02.552Z,1022.05
2019-03-24T11:58:06.144Z,1021.92
2019-03-24T11:59:02.535Z,1021.66
2019-03-24T12:00:02.524Z,1021.63
2019-03-24T12:01:02.498Z,1021.58
2019-03-24T12:02:02.493Z,1021.50
2019-03-24T12:03:02.472Z,1021.51
2019-03-24T12:04:02.456Z,1021.50
2019-03-24T12:05:02.451Z,1021.48